sensor_id;sensor_type;location;lat;lon;timestamp;P1;durP1;ratioP1;P2;durP2;ratioP2
7013;SDS011;3547;50.774;12.918;2023-09-18T00:00:58;2.40;;;2.20;;
7013;SDS011;3547;50.774;12.918;2023-09-18T00:03:24;2.33;;;2.13;;
7013;SDS011;3547;50.774;12.918;2023-09-18T00:05:50;2.85;;;2.20;;
7013;SDS011;3547;50.774;12.918;2023-09-18T00:08:17;2.22;;;2.03;;
7013;SDS011;3547;50.774;12.918;2023-09-18T00:10:49;2.75;;;2.15;;
7013;SDS011;3547;50.774;12.918;2023-09-18T00:13:18;2.25;;;2.05;;
7013;SDS011;3547;50.774;12.918;2023-09-18T00:15:44;2.10;;;1.90;;
7013;SDS011;3547;50.774;12.918;2023-09-18T00:18:15;2.42;;;1.90;;
7013;SDS011;3547;50.774;12.918;2023-09-18T00:20:42;2.20;;;2.00;;
7013;SDS011;3547;50.774;12.918;2023-09-18T00:23:09;2.72;;;1.90;;
7013;SDS011;3547;50.774;12.918;2023-09-18T00:25:35;6.57;;;2.55;;
7013;SDS011;3547;50.774;12.918;2023-09-18T00:28:07;2.25;;;2.05;;
7013;SDS011;3547;50.774;12.918;2023-09-18T00:30:34;3.17;;;2.40;;
7013;SDS011;3547;50.774;12.918;2023-09-18T00:33:00;3.25;;;2.05;;
7013;SDS011;3547;50.774;12.918;2023-09-18T00:35:26;3.05;;;1.98;;
7013;SDS011;3547;50.774;12.918;2023-09-18T00:37:53;2.45;;;2.20;;
7013;SDS011;3547;50.774;12.918;2023-09-18T00:40:19;3.08;;;2.38;;
7013;SDS011;3547;50.774;12.918;2023-09-18T00:42:46;3.10;;;2.47;;
7013;SDS011;3547;50.774;12.918;2023-09-18T00:45:12;3.22;;;2.05;;
7013;SDS011;3547;50.774;12.918;2023-09-18T00:47:38;2.92;;;2.33;;
7013;SDS011;3547;50.774;12.918;2023-09-18T00:50:05;3.15;;;2.10;;
7013;SDS011;3547;50.774;12.918;2023-09-18T00:52:34;2.90;;;2.60;;
7013;SDS011;3547;50.774;12.918;2023-09-18T00:55:01;2.20;;;2.00;;
7013;SDS011;3547;50.774;12.918;2023-09-18T00:57:28;2.17;;;2.00;;
7013;SDS011;3547;50.774;12.918;2023-09-18T00:59:54;2.30;;;2.10;;
7013;SDS011;3547;50.774;12.918;2023-09-18T01:02:21;2.95;;;2.65;;
7013;SDS011;3547;50.774;12.918;2023-09-18T01:04:48;2.42;;;2.10;;
7013;SDS011;3547;50.774;12.918;2023-09-18T01:07:15;2.70;;;2.50;;
7013;SDS011;3547;50.774;12.918;2023-09-18T01:09:41;4.82;;;2.13;;
7013;SDS011;3547;50.774;12.918;2023-09-18T01:15:12;2.42;;;2.22;;
7013;SDS011;3547;50.774;12.918;2023-09-18T01:17:43;2.35;;;2.15;;
7013;SDS011;3547;50.774;12.918;2023-09-18T01:20:11;3.50;;;2.40;;
7013;SDS011;3547;50.774;12.918;2023-09-18T01:22:38;2.35;;;2.15;;
7013;SDS011;3547;50.774;12.918;2023-09-18T01:25:05;3.08;;;2.10;;
7013;SDS011;3547;50.774;12.918;2023-09-18T01:27:32;3.60;;;2.70;;
7013;SDS011;3547;50.774;12.918;2023-09-18T01:29:58;2.40;;;2.20;;
7013;SDS011;3547;50.774;12.918;2023-09-18T01:32:25;2.63;;;2.10;;
7013;SDS011;3547;50.774;12.918;2023-09-18T01:34:57;3.63;;;2.40;;
7013;SDS011;3547;50.774;12.918;2023-09-18T01:37:27;2.10;;;1.90;;
7013;SDS011;3547;50.774;12.918;2023-09-18T01:39:55;2.88;;;2.25;;
7013;SDS011;3547;50.774;12.918;2023-09-18T01:42:28;3.40;;;2.63;;
7013;SDS011;3547;50.774;12.918;2023-09-18T01:44:55;2.70;;;2.20;;
7013;SDS011;3547;50.774;12.918;2023-09-18T01:47:21;2.42;;;2.03;;
7013;SDS011;3547;50.774;12.918;2023-09-18T01:49:57;3.70;;;2.47;;
7013;SDS011;3547;50.774;12.918;2023-09-18T01:52:23;2.97;;;1.98;;
7013;SDS011;3547;50.774;12.918;2023-09-18T01:54:49;4.53;;;2.15;;
7013;SDS011;3547;50.774;12.918;2023-09-18T01:57:16;2.38;;;2.08;;
7013;SDS011;3547;50.774;12.918;2023-09-18T01:59:42;3.78;;;2.30;;
7013;SDS011;3547;50.774;12.918;2023-09-18T02:02:09;2.20;;;2.00;;
7013;SDS011;3547;50.774;12.918;2023-09-18T02:04:37;2.10;;;1.90;;
7013;SDS011;3547;50.774;12.918;2023-09-18T02:07:03;2.45;;;2.15;;
7013;SDS011;3547;50.774;12.918;2023-09-18T02:09:31;5.15;;;2.25;;
7013;SDS011;3547;50.774;12.918;2023-09-18T02:11:57;2.40;;;2.13;;
7013;SDS011;3547;50.774;12.918;2023-09-18T02:14:23;2.47;;;1.92;;
7013;SDS011;3547;50.774;12.918;2023-09-18T02:16:49;2.40;;;2.05;;
7013;SDS011;3547;50.774;12.918;2023-09-18T02:19:17;4.68;;;2.05;;
7013;SDS011;3547;50.774;12.918;2023-09-18T02:21:45;2.33;;;2.08;;
7013;SDS011;3547;50.774;12.918;2023-09-18T02:27:34;2.58;;;2.00;;
7013;SDS011;3547;50.774;12.918;2023-09-18T02:30:00;2.00;;;1.80;;
7013;SDS011;3547;50.774;12.918;2023-09-18T02:32:26;2.47;;;2.20;;
7013;SDS011;3547;50.774;12.918;2023-09-18T02:34:53;2.95;;;1.88;;
7013;SDS011;3547;50.774;12.918;2023-09-18T02:37:19;2.00;;;1.90;;
7013;SDS011;3547;50.774;12.918;2023-09-18T02:39:45;2.50;;;2.30;;
7013;SDS011;3547;50.774;12.918;2023-09-18T02:42:11;2.58;;;2.38;;
7013;SDS011;3547;50.774;12.918;2023-09-18T02:44:37;2.80;;;2.25;;
7013;SDS011;3547;50.774;12.918;2023-09-18T02:47:03;2.22;;;1.95;;
7013;SDS011;3547;50.774;12.918;2023-09-18T02:49:30;2.75;;;2.38;;
7013;SDS011;3547;50.774;12.918;2023-09-18T02:51:56;2.60;;;2.10;;
7013;SDS011;3547;50.774;12.918;2023-09-18T02:54:22;2.30;;;2.10;;
7013;SDS011;3547;50.774;12.918;2023-09-18T02:56:48;3.13;;;2.50;;
7013;SDS011;3547;50.774;12.918;2023-09-18T02:59:14;2.50;;;2.25;;
7013;SDS011;3547;50.774;12.918;2023-09-18T03:01:40;2.72;;;2.40;;
7013;SDS011;3547;50.774;12.918;2023-09-18T03:04:06;3.20;;;2.30;;
7013;SDS011;3547;50.774;12.918;2023-09-18T03:06:32;2.67;;;2.38;;
7013;SDS011;3547;50.774;12.918;2023-09-18T03:08:58;2.10;;;1.90;;
7013;SDS011;3547;50.774;12.918;2023-09-18T03:11:24;2.88;;;2.13;;
7013;SDS011;3547;50.774;12.918;2023-09-18T03:13:53;2.20;;;2.00;;
7013;SDS011;3547;50.774;12.918;2023-09-18T03:16:19;2.97;;;2.33;;
7013;SDS011;3547;50.774;12.918;2023-09-18T03:18:45;2.40;;;2.10;;
7013;SDS011;3547;50.774;12.918;2023-09-18T03:21:11;2.92;;;2.55;;
7013;SDS011;3547;50.774;12.918;2023-09-18T03:23:37;3.78;;;2.55;;
7013;SDS011;3547;50.774;12.918;2023-09-18T03:26:04;2.40;;;2.20;;
7013;SDS011;3547;50.774;12.918;2023-09-18T03:28:30;3.40;;;2.13;;
7013;SDS011;3547;50.774;12.918;2023-09-18T03:30:57;2.20;;;2.00;;
7013;SDS011;3547;50.774;12.918;2023-09-18T03:33:24;2.50;;;2.08;;
7013;SDS011;3547;50.774;12.918;2023-09-18T03:35:54;3.15;;;2.33;;
7013;SDS011;3547;50.774;12.918;2023-09-18T03:38:23;2.85;;;2.65;;
7013;SDS011;3547;50.774;12.918;2023-09-18T03:40:50;2.80;;;2.00;;
7013;SDS011;3547;50.774;12.918;2023-09-18T03:43:17;2.30;;;2.10;;
7013;SDS011;3547;50.774;12.918;2023-09-18T03:45:43;3.10;;;2.80;;
7013;SDS011;3547;50.774;12.918;2023-09-18T03:48:09;3.03;;;2.47;;
7013;SDS011;3547;50.774;12.918;2023-09-18T03:50:36;2.50;;;2.30;;
7013;SDS011;3547;50.774;12.918;2023-09-18T03:53:02;2.92;;;2.55;;
7013;SDS011;3547;50.774;12.918;2023-09-18T03:55:28;4.07;;;2.40;;
7013;SDS011;3547;50.774;12.918;2023-09-18T03:57:55;3.78;;;2.53;;
7013;SDS011;3547;50.774;12.918;2023-09-18T04:00:21;3.20;;;2.50;;
7013;SDS011;3547;50.774;12.918;2023-09-18T04:02:48;2.45;;;2.25;;
7013;SDS011;3547;50.774;12.918;2023-09-18T04:05:14;3.50;;;2.45;;
7013;SDS011;3547;50.774;12.918;2023-09-18T04:07:41;2.67;;;2.47;;
7013;SDS011;3547;50.774;12.918;2023-09-18T04:10:11;5.07;;;2.55;;
7013;SDS011;3547;50.774;12.918;2023-09-18T04:12:49;2.97;;;2.28;;
7013;SDS011;3547;50.774;12.918;2023-09-18T04:15:16;3.10;;;2.50;;
7013;SDS011;3547;50.774;12.918;2023-09-18T04:17:43;2.55;;;2.10;;
7013;SDS011;3547;50.774;12.918;2023-09-18T04:20:10;2.75;;;2.38;;
7013;SDS011;3547;50.774;12.918;2023-09-18T04:22:41;3.17;;;2.75;;
7013;SDS011;3547;50.774;12.918;2023-09-18T04:25:11;3.53;;;2.63;;
7013;SDS011;3547;50.774;12.918;2023-09-18T04:27:38;3.00;;;2.13;;
7013;SDS011;3547;50.774;12.918;2023-09-18T04:30:04;3.65;;;2.70;;
7013;SDS011;3547;50.774;12.918;2023-09-18T04:32:31;2.78;;;2.40;;
7013;SDS011;3547;50.774;12.918;2023-09-18T04:34:57;2.65;;;2.42;;
7013;SDS011;3547;50.774;12.918;2023-09-18T04:37:23;3.63;;;2.53;;
7013;SDS011;3547;50.774;12.918;2023-09-18T04:39:50;2.67;;;2.03;;
7013;SDS011;3547;50.774;12.918;2023-09-18T04:42:16;3.05;;;2.75;;
7013;SDS011;3547;50.774;12.918;2023-09-18T04:44:43;2.65;;;2.45;;
7013;SDS011;3547;50.774;12.918;2023-09-18T04:47:10;3.33;;;2.50;;
7013;SDS011;3547;50.774;12.918;2023-09-18T04:49:36;2.72;;;2.45;;
7013;SDS011;3547;50.774;12.918;2023-09-18T04:52:02;3.65;;;2.47;;
7013;SDS011;3547;50.774;12.918;2023-09-18T04:54:28;3.47;;;2.60;;
7013;SDS011;3547;50.774;12.918;2023-09-18T04:56:54;3.58;;;2.90;;
7013;SDS011;3547;50.774;12.918;2023-09-18T04:59:20;3.13;;;2.72;;
7013;SDS011;3547;50.774;12.918;2023-09-18T05:01:47;3.60;;;2.58;;
7013;SDS011;3547;50.774;12.918;2023-09-18T05:04:13;3.65;;;2.47;;
7013;SDS011;3547;50.774;12.918;2023-09-18T05:06:39;5.18;;;3.00;;
7013;SDS011;3547;50.774;12.918;2023-09-18T05:09:07;2.95;;;2.60;;
7013;SDS011;3547;50.774;12.918;2023-09-18T05:11:33;2.75;;;2.40;;
7013;SDS011;3547;50.774;12.918;2023-09-18T05:13:59;4.13;;;2.42;;
7013;SDS011;3547;50.774;12.918;2023-09-18T05:16:26;2.70;;;2.42;;
7013;SDS011;3547;50.774;12.918;2023-09-18T05:18:52;2.70;;;2.42;;
7013;SDS011;3547;50.774;12.918;2023-09-18T05:21:18;3.03;;;2.42;;
7013;SDS011;3547;50.774;12.918;2023-09-18T05:23:50;2.97;;;2.67;;
7013;SDS011;3547;50.774;12.918;2023-09-18T05:26:16;2.40;;;2.20;;
7013;SDS011;3547;50.774;12.918;2023-09-18T05:28:42;2.20;;;2.00;;
7013;SDS011;3547;50.774;12.918;2023-09-18T05:31:08;2.28;;;2.08;;
7013;SDS011;3547;50.774;12.918;2023-09-18T05:33:34;3.88;;;2.20;;
7013;SDS011;3547;50.774;12.918;2023-09-18T05:36:01;2.60;;;2.13;;
7013;SDS011;3547;50.774;12.918;2023-09-18T05:38:27;2.35;;;2.15;;
7013;SDS011;3547;50.774;12.918;2023-09-18T05:40:53;2.38;;;2.17;;
7013;SDS011;3547;50.774;12.918;2023-09-18T05:43:19;2.50;;;2.30;;
7013;SDS011;3547;50.774;12.918;2023-09-18T05:45:45;2.10;;;1.90;;
7013;SDS011;3547;50.774;12.918;2023-09-18T05:48:13;2.13;;;1.92;;
7013;SDS011;3547;50.774;12.918;2023-09-18T05:50:39;2.92;;;2.38;;
7013;SDS011;3547;50.774;12.918;2023-09-18T05:53:07;3.58;;;1.98;;
7013;SDS011;3547;50.774;12.918;2023-09-18T05:55:33;2.10;;;1.90;;
7013;SDS011;3547;50.774;12.918;2023-09-18T05:58:00;4.88;;;2.08;;
7013;SDS011;3547;50.774;12.918;2023-09-18T06:00:27;2.53;;;2.30;;
7013;SDS011;3547;50.774;12.918;2023-09-18T06:02:53;2.50;;;2.30;;
7013;SDS011;3547;50.774;12.918;2023-09-18T06:05:19;2.58;;;2.38;;
7013;SDS011;3547;50.774;12.918;2023-09-18T06:07:49;3.45;;;1.83;;
7013;SDS011;3547;50.774;12.918;2023-09-18T06:10:16;2.22;;;2.03;;
7013;SDS011;3547;50.774;12.918;2023-09-18T06:12:43;2.90;;;2.08;;
7013;SDS011;3547;50.774;12.918;2023-09-18T06:15:10;2.35;;;2.03;;
7013;SDS011;3547;50.774;12.918;2023-09-18T06:17:40;2.28;;;1.98;;
7013;SDS011;3547;50.774;12.918;2023-09-18T06:20:08;2.33;;;1.95;;
7013;SDS011;3547;50.774;12.918;2023-09-18T06:22:39;2.40;;;2.17;;
7013;SDS011;3547;50.774;12.918;2023-09-18T06:25:06;3.33;;;2.25;;
7013;SDS011;3547;50.774;12.918;2023-09-18T06:27:36;2.42;;;1.88;;
7013;SDS011;3547;50.774;12.918;2023-09-18T06:30:03;2.20;;;1.95;;
7013;SDS011;3547;50.774;12.918;2023-09-18T06:32:30;2.97;;;2.35;;
7013;SDS011;3547;50.774;12.918;2023-09-18T06:34:57;2.42;;;2.00;;
7013;SDS011;3547;50.774;12.918;2023-09-18T06:37:23;2.20;;;2.00;;
7013;SDS011;3547;50.774;12.918;2023-09-18T06:39:50;2.42;;;2.20;;
7013;SDS011;3547;50.774;12.918;2023-09-18T06:42:17;2.72;;;2.17;;
7013;SDS011;3547;50.774;12.918;2023-09-18T06:44:43;3.60;;;1.90;;
7013;SDS011;3547;50.774;12.918;2023-09-18T06:47:09;2.10;;;1.90;;
7013;SDS011;3547;50.774;12.918;2023-09-18T06:49:35;2.55;;;2.33;;
7013;SDS011;3547;50.774;12.918;2023-09-18T06:52:02;2.40;;;2.08;;
7013;SDS011;3547;50.774;12.918;2023-09-18T06:54:28;2.40;;;2.15;;
7013;SDS011;3547;50.774;12.918;2023-09-18T06:56:54;2.20;;;2.00;;
7013;SDS011;3547;50.774;12.918;2023-09-18T06:59:20;2.67;;;2.20;;
7013;SDS011;3547;50.774;12.918;2023-09-18T07:01:46;2.25;;;2.05;;
7013;SDS011;3547;50.774;12.918;2023-09-18T07:04:13;2.83;;;2.38;;
7013;SDS011;3547;50.774;12.918;2023-09-18T07:06:39;2.90;;;2.40;;
7013;SDS011;3547;50.774;12.918;2023-09-18T07:09:05;2.20;;;2.00;;
7013;SDS011;3547;50.774;12.918;2023-09-18T07:11:35;2.60;;;2.20;;
7013;SDS011;3547;50.774;12.918;2023-09-18T07:14:02;1.98;;;1.75;;
7013;SDS011;3547;50.774;12.918;2023-09-18T07:16:31;2.40;;;2.20;;
7013;SDS011;3547;50.774;12.918;2023-09-18T07:18:58;4.63;;;2.30;;
7013;SDS011;3547;50.774;12.918;2023-09-18T07:21:24;4.13;;;1.85;;
7013;SDS011;3547;50.774;12.918;2023-09-18T07:23:50;2.38;;;2.08;;
7013;SDS011;3547;50.774;12.918;2023-09-18T07:26:16;2.67;;;2.10;;
7013;SDS011;3547;50.774;12.918;2023-09-18T07:28:42;2.30;;;1.90;;
7013;SDS011;3547;50.774;12.918;2023-09-18T07:31:11;2.05;;;1.85;;
7013;SDS011;3547;50.774;12.918;2023-09-18T07:33:38;3.13;;;1.88;;
7013;SDS011;3547;50.774;12.918;2023-09-18T07:36:04;2.08;;;1.88;;
7013;SDS011;3547;50.774;12.918;2023-09-18T07:38:30;2.55;;;2.03;;
7013;SDS011;3547;50.774;12.918;2023-09-18T07:40:57;2.30;;;2.10;;
7013;SDS011;3547;50.774;12.918;2023-09-18T07:43:26;3.97;;;1.80;;
7013;SDS011;3547;50.774;12.918;2023-09-18T07:45:53;6.07;;;2.03;;
7013;SDS011;3547;50.774;12.918;2023-09-18T07:48:21;2.47;;;2.08;;
7013;SDS011;3547;50.774;12.918;2023-09-18T07:50:48;2.30;;;2.10;;
7013;SDS011;3547;50.774;12.918;2023-09-18T07:53:15;2.83;;;2.03;;
7013;SDS011;3547;50.774;12.918;2023-09-18T07:55:42;1.80;;;1.70;;
7013;SDS011;3547;50.774;12.918;2023-09-18T07:58:08;2.30;;;2.05;;
7013;SDS011;3547;50.774;12.918;2023-09-18T08:00:35;2.20;;;1.98;;
7013;SDS011;3547;50.774;12.918;2023-09-18T08:03:01;1.95;;;1.77;;
7013;SDS011;3547;50.774;12.918;2023-09-18T08:05:27;2.03;;;1.80;;
7013;SDS011;3547;50.774;12.918;2023-09-18T08:07:54;2.50;;;2.00;;
7013;SDS011;3547;50.774;12.918;2023-09-18T08:10:25;2.30;;;2.10;;
7013;SDS011;3547;50.774;12.918;2023-09-18T08:12:52;2.30;;;2.10;;
7013;SDS011;3547;50.774;12.918;2023-09-18T08:15:21;2.72;;;2.08;;
7013;SDS011;3547;50.774;12.918;2023-09-18T08:17:48;2.28;;;2.08;;
7013;SDS011;3547;50.774;12.918;2023-09-18T08:20:15;2.47;;;2.28;;
7013;SDS011;3547;50.774;12.918;2023-09-18T08:22:44;2.47;;;2.03;;
7013;SDS011;3547;50.774;12.918;2023-09-18T08:25:11;2.35;;;2.10;;
7013;SDS011;3547;50.774;12.918;2023-09-18T08:27:38;2.50;;;2.30;;
7013;SDS011;3547;50.774;12.918;2023-09-18T08:30:10;2.20;;;2.00;;
7013;SDS011;3547;50.774;12.918;2023-09-18T08:32:37;2.40;;;2.20;;
7013;SDS011;3547;50.774;12.918;2023-09-18T08:35:04;2.70;;;2.50;;
7013;SDS011;3547;50.774;12.918;2023-09-18T08:37:31;4.78;;;2.08;;
7013;SDS011;3547;50.774;12.918;2023-09-18T08:39:57;3.40;;;2.60;;
7013;SDS011;3547;50.774;12.918;2023-09-18T08:42:27;2.10;;;1.98;;
7013;SDS011;3547;50.774;12.918;2023-09-18T08:44:56;2.40;;;2.20;;
7013;SDS011;3547;50.774;12.918;2023-09-18T08:47:25;3.47;;;2.25;;
7013;SDS011;3547;50.774;12.918;2023-09-18T08:49:53;2.35;;;2.10;;
7013;SDS011;3547;50.774;12.918;2023-09-18T08:52:21;2.40;;;2.17;;
7013;SDS011;3547;50.774;12.918;2023-09-18T08:54:48;3.05;;;2.00;;
7013;SDS011;3547;50.774;12.918;2023-09-18T08:57:16;2.10;;;1.85;;
7013;SDS011;3547;50.774;12.918;2023-09-18T08:59:42;2.40;;;2.15;;
7013;SDS011;3547;50.774;12.918;2023-09-18T09:02:09;2.97;;;1.80;;
7013;SDS011;3547;50.774;12.918;2023-09-18T09:04:39;1.80;;;1.42;;
7013;SDS011;3547;50.774;12.918;2023-09-18T09:07:05;1.90;;;1.80;;
7013;SDS011;3547;50.774;12.918;2023-09-18T09:09:32;1.70;;;1.60;;
7013;SDS011;3547;50.774;12.918;2023-09-18T09:11:58;1.95;;;1.80;;
7013;SDS011;3547;50.774;12.918;2023-09-18T09:14:24;1.70;;;1.60;;
7013;SDS011;3547;50.774;12.918;2023-09-18T09:16:54;1.80;;;1.50;;
7013;SDS011;3547;50.774;12.918;2023-09-18T09:19:28;1.58;;;1.48;;
7013;SDS011;3547;50.774;12.918;2023-09-18T09:21:58;1.58;;;1.48;;
7013;SDS011;3547;50.774;12.918;2023-09-18T09:24:39;1.52;;;1.42;;
7013;SDS011;3547;50.774;12.918;2023-09-18T09:27:07;1.95;;;1.75;;
7013;SDS011;3547;50.774;12.918;2023-09-18T09:29:52;1.52;;;1.40;;
7013;SDS011;3547;50.774;12.918;2023-09-18T09:32:44;1.35;;;1.25;;
7013;SDS011;3547;50.774;12.918;2023-09-18T09:39:22;1.83;;;1.50;;
7013;SDS011;3547;50.774;12.918;2023-09-18T09:41:53;1.87;;;1.67;;
7013;SDS011;3547;50.774;12.918;2023-09-18T09:51:08;1.95;;;1.80;;
7013;SDS011;3547;50.774;12.918;2023-09-18T09:53:46;2.25;;;1.63;;
7013;SDS011;3547;50.774;12.918;2023-09-18T09:56:14;1.70;;;1.60;;
7013;SDS011;3547;50.774;12.918;2023-09-18T09:58:40;1.67;;;1.58;;
7013;SDS011;3547;50.774;12.918;2023-09-18T10:01:11;1.88;;;1.60;;
7013;SDS011;3547;50.774;12.918;2023-09-18T10:03:43;1.92;;;1.80;;
7013;SDS011;3547;50.774;12.918;2023-09-18T10:06:10;2.50;;;1.63;;
7013;SDS011;3547;50.774;12.918;2023-09-18T10:08:41;2.35;;;1.80;;
7013;SDS011;3547;50.774;12.918;2023-09-18T10:11:08;1.60;;;1.50;;
7013;SDS011;3547;50.774;12.918;2023-09-18T10:13:40;1.75;;;1.65;;
7013;SDS011;3547;50.774;12.918;2023-09-18T10:16:12;1.95;;;1.75;;
7013;SDS011;3547;50.774;12.918;2023-09-18T10:25:23;2.03;;;1.83;;
7013;SDS011;3547;50.774;12.918;2023-09-18T10:27:50;2.33;;;1.65;;
7013;SDS011;3547;50.774;12.918;2023-09-18T10:30:24;2.40;;;1.80;;
7013;SDS011;3547;50.774;12.918;2023-09-18T10:32:52;1.92;;;1.77;;
7013;SDS011;3547;50.774;12.918;2023-09-18T10:35:19;2.33;;;2.10;;
7013;SDS011;3547;50.774;12.918;2023-09-18T10:37:46;4.03;;;1.83;;
7013;SDS011;3547;50.774;12.918;2023-09-18T10:40:16;4.22;;;1.85;;
7013;SDS011;3547;50.774;12.918;2023-09-18T10:42:43;2.78;;;2.10;;
7013;SDS011;3547;50.774;12.918;2023-09-18T10:45:14;1.73;;;1.63;;
7013;SDS011;3547;50.774;12.918;2023-09-18T10:47:42;1.85;;;1.75;;
7013;SDS011;3547;50.774;12.918;2023-09-18T10:50:22;1.92;;;1.83;;
7013;SDS011;3547;50.774;12.918;2023-09-18T10:52:49;1.88;;;1.75;;
7013;SDS011;3547;50.774;12.918;2023-09-18T10:55:16;1.80;;;1.70;;
7013;SDS011;3547;50.774;12.918;2023-09-18T10:57:52;1.95;;;1.20;;
7013;SDS011;3547;50.774;12.918;2023-09-18T11:00:26;1.63;;;1.52;;
7013;SDS011;3547;50.774;12.918;2023-09-18T11:03:11;3.22;;;1.60;;
7013;SDS011;3547;50.774;12.918;2023-09-18T11:05:46;5.25;;;1.73;;
7013;SDS011;3547;50.774;12.918;2023-09-18T11:08:25;4.80;;;1.70;;
7013;SDS011;3547;50.774;12.918;2023-09-18T11:10:56;4.25;;;1.75;;
7013;SDS011;3547;50.774;12.918;2023-09-18T11:13:30;4.15;;;1.83;;
7013;SDS011;3547;50.774;12.918;2023-09-18T11:16:03;4.97;;;1.77;;
7013;SDS011;3547;50.774;12.918;2023-09-18T11:21:25;3.85;;;1.60;;
7013;SDS011;3547;50.774;12.918;2023-09-18T11:26:30;1.83;;;1.63;;
7013;SDS011;3547;50.774;12.918;2023-09-18T11:29:01;1.98;;;1.77;;
7013;SDS011;3547;50.774;12.918;2023-09-18T11:32:05;8.05;;;1.85;;
7013;SDS011;3547;50.774;12.918;2023-09-18T11:34:28;2.83;;;1.80;;
7013;SDS011;3547;50.774;12.918;2023-09-18T11:37:00;5.65;;;1.67;;
7013;SDS011;3547;50.774;12.918;2023-09-18T11:39:33;2.70;;;1.65;;
7013;SDS011;3547;50.774;12.918;2023-09-18T11:42:07;3.45;;;1.70;;
7013;SDS011;3547;50.774;12.918;2023-09-18T11:44:36;4.53;;;2.03;;
7013;SDS011;3547;50.774;12.918;2023-09-18T11:47:07;2.92;;;1.40;;
7013;SDS011;3547;50.774;12.918;2023-09-18T11:49:38;2.22;;;1.35;;
7013;SDS011;3547;50.774;12.918;2023-09-18T11:52:08;1.73;;;1.50;;
7013;SDS011;3547;50.774;12.918;2023-09-18T11:54:36;3.88;;;1.98;;
7013;SDS011;3547;50.774;12.918;2023-09-18T11:57:06;3.08;;;1.70;;
7013;SDS011;3547;50.774;12.918;2023-09-18T11:59:33;4.22;;;1.50;;
7013;SDS011;3547;50.774;12.918;2023-09-18T12:02:02;5.47;;;1.90;;
7013;SDS011;3547;50.774;12.918;2023-09-18T12:04:31;2.65;;;1.70;;
7013;SDS011;3547;50.774;12.918;2023-09-18T12:07:01;4.78;;;1.60;;
7013;SDS011;3547;50.774;12.918;2023-09-18T12:09:30;4.10;;;1.52;;
7013;SDS011;3547;50.774;12.918;2023-09-18T12:12:00;3.60;;;1.67;;
7013;SDS011;3547;50.774;12.918;2023-09-18T12:14:31;2.00;;;1.63;;
7013;SDS011;3547;50.774;12.918;2023-09-18T12:17:01;3.92;;;1.73;;
7013;SDS011;3547;50.774;12.918;2023-09-18T12:19:29;1.85;;;1.45;;
7013;SDS011;3547;50.774;12.918;2023-09-18T12:21:56;4.93;;;1.90;;
7013;SDS011;3547;50.774;12.918;2023-09-18T12:24:23;3.28;;;1.70;;
7013;SDS011;3547;50.774;12.918;2023-09-18T12:26:51;3.97;;;1.60;;
7013;SDS011;3547;50.774;12.918;2023-09-18T12:29:21;3.45;;;1.80;;
7013;SDS011;3547;50.774;12.918;2023-09-18T12:31:48;6.90;;;1.83;;
7013;SDS011;3547;50.774;12.918;2023-09-18T12:34:19;4.10;;;1.88;;
7013;SDS011;3547;50.774;12.918;2023-09-18T12:36:47;1.83;;;1.55;;
7013;SDS011;3547;50.774;12.918;2023-09-18T12:39:13;2.10;;;1.60;;
7013;SDS011;3547;50.774;12.918;2023-09-18T12:41:44;3.15;;;1.83;;
7013;SDS011;3547;50.774;12.918;2023-09-18T12:44:11;6.07;;;1.67;;
7013;SDS011;3547;50.774;12.918;2023-09-18T12:46:38;5.32;;;2.20;;
7013;SDS011;3547;50.774;12.918;2023-09-18T12:49:16;3.10;;;1.70;;
7013;SDS011;3547;50.774;12.918;2023-09-18T12:51:59;2.47;;;1.50;;
7013;SDS011;3547;50.774;12.918;2023-09-18T12:55:00;4.22;;;1.70;;
7013;SDS011;3547;50.774;12.918;2023-09-18T12:57:23;6.15;;;2.15;;
7013;SDS011;3547;50.774;12.918;2023-09-18T12:59:49;7.38;;;2.20;;
7013;SDS011;3547;50.774;12.918;2023-09-18T13:02:18;3.80;;;1.85;;
7013;SDS011;3547;50.774;12.918;2023-09-18T13:04:54;3.55;;;2.00;;
7013;SDS011;3547;50.774;12.918;2023-09-18T13:07:21;2.85;;;1.65;;
7013;SDS011;3547;50.774;12.918;2023-09-18T13:10:02;2.10;;;1.75;;
7013;SDS011;3547;50.774;12.918;2023-09-18T13:12:45;3.70;;;1.73;;
7013;SDS011;3547;50.774;12.918;2023-09-18T13:15:14;3.35;;;1.80;;
7013;SDS011;3547;50.774;12.918;2023-09-18T13:18:00;6.03;;;1.60;;
7013;SDS011;3547;50.774;12.918;2023-09-18T13:20:36;6.25;;;1.40;;
7013;SDS011;3547;50.774;12.918;2023-09-18T13:23:02;2.13;;;1.30;;
7013;SDS011;3547;50.774;12.918;2023-09-18T13:25:33;4.13;;;1.58;;
7013;SDS011;3547;50.774;12.918;2023-09-18T13:28:02;2.00;;;1.20;;
7013;SDS011;3547;50.774;12.918;2023-09-18T13:30:29;2.25;;;1.30;;
7013;SDS011;3547;50.774;12.918;2023-09-18T13:33:03;3.40;;;1.50;;
7013;SDS011;3547;50.774;12.918;2023-09-18T13:35:31;4.22;;;1.60;;
7013;SDS011;3547;50.774;12.918;2023-09-18T13:38:01;2.10;;;1.25;;
7013;SDS011;3547;50.774;12.918;2023-09-18T13:40:31;3.75;;;1.42;;
7013;SDS011;3547;50.774;12.918;2023-09-18T13:43:01;2.67;;;1.15;;
7013;SDS011;3547;50.774;12.918;2023-09-18T13:45:32;1.77;;;1.23;;
7013;SDS011;3547;50.774;12.918;2023-09-18T13:47:58;1.38;;;1.27;;
7013;SDS011;3547;50.774;12.918;2023-09-18T13:50:24;2.45;;;1.50;;
7013;SDS011;3547;50.774;12.918;2023-09-18T13:52:51;2.88;;;1.13;;
7013;SDS011;3547;50.774;12.918;2023-09-18T13:55:17;1.13;;;1.02;;
7013;SDS011;3547;50.774;12.918;2023-09-18T13:57:43;3.38;;;1.30;;
7013;SDS011;3547;50.774;12.918;2023-09-18T14:00:09;2.25;;;1.50;;
7013;SDS011;3547;50.774;12.918;2023-09-18T14:02:40;1.20;;;1.10;;
7013;SDS011;3547;50.774;12.918;2023-09-18T14:05:07;3.92;;;1.55;;
7013;SDS011;3547;50.774;12.918;2023-09-18T14:07:37;2.50;;;1.48;;
7013;SDS011;3547;50.774;12.918;2023-09-18T14:10:05;1.33;;;1.15;;
7013;SDS011;3547;50.774;12.918;2023-09-18T14:12:32;6.80;;;1.50;;
7013;SDS011;3547;50.774;12.918;2023-09-18T14:14:59;5.15;;;1.30;;
7013;SDS011;3547;50.774;12.918;2023-09-18T14:17:33;5.05;;;1.20;;
7013;SDS011;3547;50.774;12.918;2023-09-18T14:20:00;3.45;;;1.27;;
7013;SDS011;3547;50.774;12.918;2023-09-18T14:22:32;1.30;;;1.20;;
7013;SDS011;3547;50.774;12.918;2023-09-18T14:24:59;3.10;;;1.05;;
7013;SDS011;3547;50.774;12.918;2023-09-18T14:27:31;3.35;;;1.30;;
7013;SDS011;3547;50.774;12.918;2023-09-18T14:30:00;1.38;;;0.93;;
7013;SDS011;3547;50.774;12.918;2023-09-18T14:32:32;1.27;;;1.10;;
7013;SDS011;3547;50.774;12.918;2023-09-18T14:35:02;2.70;;;1.02;;
7013;SDS011;3547;50.774;12.918;2023-09-18T14:37:30;1.30;;;1.20;;
7013;SDS011;3547;50.774;12.918;2023-09-18T14:39:57;2.10;;;1.45;;
7013;SDS011;3547;50.774;12.918;2023-09-18T14:42:24;2.55;;;1.48;;
7013;SDS011;3547;50.774;12.918;2023-09-18T14:44:50;5.38;;;1.58;;
7013;SDS011;3547;50.774;12.918;2023-09-18T14:47:16;3.10;;;1.45;;
7013;SDS011;3547;50.774;12.918;2023-09-18T14:49:42;2.17;;;1.20;;
7013;SDS011;3547;50.774;12.918;2023-09-18T14:52:13;2.53;;;1.40;;
7013;SDS011;3547;50.774;12.918;2023-09-18T14:54:41;2.58;;;1.38;;
7013;SDS011;3547;50.774;12.918;2023-09-18T14:57:07;4.95;;;1.10;;
7013;SDS011;3547;50.774;12.918;2023-09-18T14:59:33;1.85;;;1.30;;
7013;SDS011;3547;50.774;12.918;2023-09-18T15:01:59;3.40;;;1.23;;
7013;SDS011;3547;50.774;12.918;2023-09-18T15:04:26;1.35;;;1.00;;
7013;SDS011;3547;50.774;12.918;2023-09-18T15:06:52;2.05;;;1.58;;
7013;SDS011;3547;50.774;12.918;2023-09-18T15:09:18;1.83;;;0.98;;
7013;SDS011;3547;50.774;12.918;2023-09-18T15:11:44;3.30;;;1.10;;
7013;SDS011;3547;50.774;12.918;2023-09-18T15:14:10;3.85;;;1.13;;
7013;SDS011;3547;50.774;12.918;2023-09-18T15:16:37;1.48;;;1.00;;
7013;SDS011;3547;50.774;12.918;2023-09-18T15:19:03;1.90;;;1.30;;
7013;SDS011;3547;50.774;12.918;2023-09-18T15:21:31;2.45;;;1.35;;
7013;SDS011;3547;50.774;12.918;2023-09-18T15:23:58;1.63;;;1.48;;
7013;SDS011;3547;50.774;12.918;2023-09-18T15:26:24;1.55;;;1.30;;
7013;SDS011;3547;50.774;12.918;2023-09-18T15:28:50;1.60;;;1.50;;
7013;SDS011;3547;50.774;12.918;2023-09-18T15:31:16;3.28;;;1.15;;
7013;SDS011;3547;50.774;12.918;2023-09-18T15:33:42;1.40;;;1.30;;
7013;SDS011;3547;50.774;12.918;2023-09-18T15:36:10;1.48;;;1.30;;